createdAt,value
2023-05-06T00:01:30.316Z,1.90
2023-05-06T00:03:58.633Z,1.50
2023-05-06T00:06:29.000Z,1.37
2023-05-06T00:08:57.268Z,1.30
2023-05-06T00:11:25.497Z,1.70
2023-05-06T00:13:53.919Z,1.57
2023-05-06T00:16:22.211Z,1.90
2023-05-06T00:18:50.481Z,1.57
2023-05-06T00:21:18.886Z,1.70
2023-05-06T00:23:48.435Z,1.33
2023-05-06T00:26:16.642Z,1.33
2023-05-06T00:28:44.862Z,1.53
2023-05-06T00:31:13.055Z,1.60
2023-05-06T00:33:41.459Z,2.00
2023-05-06T00:36:10.028Z,1.60
2023-05-06T00:38:38.276Z,2.10
2023-05-06T00:41:08.167Z,1.57
2023-05-06T00:43:36.417Z,1.43
2023-05-06T00:46:05.253Z,1.73
2023-05-06T00:48:33.595Z,1.40
2023-05-06T00:51:01.762Z,1.60
2023-05-06T00:53:29.987Z,1.50
2023-05-06T00:55:58.299Z,1.60
2023-05-06T00:58:27.865Z,1.30
2023-05-06T01:00:56.899Z,1.47
2023-05-06T01:03:26.004Z,1.50
2023-05-06T01:05:59.400Z,1.83
2023-05-06T01:08:31.443Z,1.57
2023-05-06T01:11:04.016Z,1.07
2023-05-06T01:13:36.622Z,2.13
2023-05-06T01:16:06.241Z,1.40
2023-05-06T01:18:34.639Z,1.93
2023-05-06T01:21:03.382Z,1.40
2023-05-06T01:23:51.732Z,1.50
2023-05-06T01:26:19.974Z,1.80
2023-05-06T01:28:48.224Z,1.37
2023-05-06T01:31:19.652Z,1.80
2023-05-06T01:33:49.260Z,1.40
2023-05-06T01:36:20.506Z,1.30
2023-05-06T01:38:54.506Z,1.30
2023-05-06T01:41:24.854Z,1.23
2023-05-06T01:43:54.505Z,1.80
2023-05-06T01:46:24.120Z,2.33
2023-05-06T01:48:55.205Z,1.47
2023-05-06T01:51:23.600Z,1.70
2023-05-06T01:53:53.171Z,2.03
2023-05-06T01:56:21.711Z,1.83
2023-05-06T01:58:49.949Z,1.73
2023-05-06T02:01:18.169Z,2.00
2023-05-06T02:03:46.421Z,2.00
2023-05-06T02:06:14.629Z,2.00
2023-05-06T02:08:43.063Z,1.97
2023-05-06T02:11:12.680Z,1.50
2023-05-06T02:13:40.898Z,1.50
2023-05-06T02:16:09.590Z,1.40
2023-05-06T02:18:37.887Z,2.37
2023-05-06T02:21:06.162Z,2.27
2023-05-06T02:23:34.382Z,1.83
2023-05-06T02:26:02.640Z,1.77
2023-05-06T02:28:32.167Z,1.47
2023-05-06T02:31:00.498Z,2.03
2023-05-06T02:33:28.707Z,2.10
2023-05-06T02:35:56.906Z,1.60
2023-05-06T02:38:25.827Z,1.80
2023-05-06T02:40:54.063Z,1.40
2023-05-06T02:43:23.136Z,1.67
2023-05-06T02:45:52.759Z,1.73
2023-05-06T02:48:20.946Z,1.43
2023-05-06T02:50:49.148Z,2.33
2023-05-06T02:53:17.363Z,1.70
2023-05-06T02:55:45.692Z,1.80
2023-05-06T02:58:13.918Z,1.40
2023-05-06T03:00:42.166Z,1.77
2023-05-06T03:03:11.934Z,1.97
2023-05-06T03:05:40.180Z,1.67
2023-05-06T03:08:08.393Z,1.87
2023-05-06T03:10:36.577Z,1.27
2023-05-06T03:13:04.907Z,1.40
2023-05-06T03:15:33.271Z,1.37
2023-05-06T03:18:01.497Z,1.80
2023-05-06T03:20:31.320Z,1.50
2023-05-06T03:22:59.486Z,1.30
2023-05-06T03:25:27.749Z,1.33
2023-05-06T03:27:55.909Z,2.00
2023-05-06T03:30:24.143Z,1.40
2023-05-06T03:32:52.479Z,1.47
2023-05-06T03:35:20.866Z,1.43
2023-05-06T03:37:50.356Z,1.80
2023-05-06T03:40:18.610Z,2.37
2023-05-06T03:42:47.038Z,1.80
2023-05-06T03:45:15.510Z,1.20
2023-05-06T03:47:43.757Z,1.63
2023-05-06T03:50:12.202Z,1.70
2023-05-06T03:52:40.659Z,1.53
2023-05-06T03:55:10.977Z,1.90
2023-05-06T03:57:40.701Z,2.03
2023-05-06T04:00:10.541Z,1.60
2023-05-06T04:02:38.999Z,1.63
2023-05-06T04:05:08.631Z,1.63
2023-05-06T04:07:36.988Z,1.30
2023-05-06T04:10:05.397Z,2.70
2023-05-06T04:12:35.637Z,1.60
2023-05-06T04:15:04.100Z,1.60
2023-05-06T04:17:32.297Z,1.17
2023-05-06T04:20:07.091Z,1.43
2023-05-06T04:22:35.327Z,1.37
2023-05-06T04:25:03.677Z,1.80
2023-05-06T04:27:32.183Z,1.60
2023-05-06T04:30:01.809Z,1.53
2023-05-06T04:32:30.181Z,1.63
2023-05-06T04:34:58.412Z,1.70
2023-05-06T04:37:28.314Z,1.63
2023-05-06T04:39:57.158Z,1.43
2023-05-06T04:42:25.495Z,1.50
2023-05-06T04:44:53.767Z,1.47
2023-05-06T04:47:23.392Z,1.70
2023-05-06T04:49:51.638Z,1.50
2023-05-06T04:52:19.838Z,1.57
2023-05-06T04:54:47.988Z,1.97
2023-05-06T04:57:16.144Z,1.43
2023-05-06T04:59:44.327Z,1.90
2023-05-06T05:02:12.908Z,1.63
2023-05-06T05:04:42.663Z,1.50
2023-05-06T05:07:11.601Z,1.50
2023-05-06T05:09:39.812Z,1.63
2023-05-06T05:12:08.270Z,2.07
2023-05-06T05:14:36.539Z,2.03
2023-05-06T05:17:04.778Z,2.00
2023-05-06T05:19:33.094Z,1.80
2023-05-06T05:22:02.656Z,1.80
2023-05-06T05:24:30.916Z,1.97
2023-05-06T05:26:59.077Z,2.30
2023-05-06T05:29:27.298Z,2.30
2023-05-06T05:31:55.570Z,1.60
2023-05-06T05:34:23.942Z,1.77
2023-05-06T05:36:52.908Z,1.77
2023-05-06T05:39:22.510Z,1.90
2023-05-06T05:41:50.698Z,1.83
2023-05-06T05:44:18.888Z,2.00
2023-05-06T05:46:47.170Z,2.30
2023-05-06T05:49:15.376Z,1.77
2023-05-06T05:51:43.666Z,1.50
2023-05-06T05:54:11.871Z,1.43
2023-05-06T05:56:41.376Z,1.63
2023-05-06T05:59:09.990Z,1.57
2023-05-06T06:01:38.186Z,1.40
2023-05-06T06:04:06.927Z,1.80
2023-05-06T06:06:35.359Z,1.70
2023-05-06T06:09:04.258Z,1.53
2023-05-06T06:11:32.569Z,1.77
2023-05-06T06:14:02.145Z,2.30
2023-05-06T06:16:30.465Z,1.90
2023-05-06T06:18:58.693Z,1.93
2023-05-06T06:21:27.575Z,2.17
2023-05-06T06:23:55.835Z,2.10
2023-05-06T06:26:24.041Z,1.60
2023-05-06T06:28:52.257Z,2.80
2023-05-06T06:31:21.850Z,2.83
2023-05-06T06:33:50.088Z,2.00
2023-05-06T06:36:18.340Z,2.27
2023-05-06T06:38:46.546Z,1.70
2023-05-06T06:41:14.751Z,1.57
2023-05-06T06:43:42.972Z,1.60
2023-05-06T06:46:11.243Z,1.40
2023-05-06T06:48:40.889Z,1.80
2023-05-06T06:51:09.094Z,2.07
2023-05-06T06:53:37.391Z,1.60
2023-05-06T06:56:05.817Z,1.60
2023-05-06T06:58:34.968Z,1.50
2023-05-06T07:01:03.224Z,1.77
2023-05-06T07:03:31.395Z,1.70
2023-05-06T07:06:01.688Z,1.40
2023-05-06T07:08:30.191Z,1.50
2023-05-06T07:10:58.480Z,1.40
2023-05-06T07:13:26.743Z,2.00
2023-05-06T07:15:54.979Z,1.50
2023-05-06T07:18:23.230Z,1.90
2023-05-06T07:20:51.522Z,1.67
2023-05-06T07:23:21.074Z,2.10
2023-05-06T07:25:49.459Z,1.70
2023-05-06T07:28:17.708Z,1.60
2023-05-06T07:30:46.938Z,2.07
2023-05-06T07:33:15.187Z,1.43
2023-05-06T07:35:43.412Z,1.10
2023-05-06T07:38:11.590Z,2.10
2023-05-06T07:40:41.143Z,1.87
2023-05-06T07:43:09.849Z,1.63
2023-05-06T07:45:38.188Z,1.93
2023-05-06T07:48:06.859Z,1.90
2023-05-06T07:50:35.356Z,1.80
2023-05-06T07:53:03.966Z,2.13
2023-05-06T07:55:34.502Z,2.37
2023-05-06T07:58:04.723Z,2.10
2023-05-06T08:00:32.955Z,2.00
2023-05-06T08:03:01.307Z,2.40
2023-05-06T08:05:29.643Z,2.20
2023-05-06T08:07:57.908Z,2.30
2023-05-06T08:10:26.178Z,2.20
2023-05-06T08:12:54.487Z,1.67
2023-05-06T08:15:24.195Z,2.17
2023-05-06T08:17:52.726Z,1.90
2023-05-06T08:20:21.155Z,2.00
2023-05-06T08:22:49.324Z,2.90
2023-05-06T08:25:17.809Z,2.60
2023-05-06T08:27:45.961Z,1.97
2023-05-06T08:30:14.723Z,2.53
2023-05-06T08:32:44.334Z,2.03
2023-05-06T08:35:13.664Z,1.30
2023-05-06T08:37:42.243Z,2.40
2023-05-06T08:40:16.902Z,2.60
2023-05-06T08:42:47.396Z,2.63
2023-05-06T08:45:15.715Z,1.20
2023-05-06T08:47:46.303Z,2.13
2023-05-06T08:50:14.604Z,2.10
2023-05-06T08:52:42.884Z,2.43
2023-05-06T08:55:11.726Z,3.10
2023-05-06T08:57:40.205Z,2.10
2023-05-06T09:00:10.928Z,2.37
2023-05-06T09:02:42.193Z,1.80
2023-05-06T09:05:13.185Z,1.57
2023-05-06T09:07:41.884Z,1.70
2023-05-06T09:10:14.555Z,2.47
2023-05-06T09:12:42.869Z,2.87
2023-05-06T09:15:11.853Z,1.97
2023-05-06T09:17:40.440Z,1.60
2023-05-06T09:20:09.545Z,1.37
2023-05-06T09:22:39.610Z,2.77
2023-05-06T09:25:08.496Z,1.67
2023-05-06T09:27:37.651Z,1.70
2023-05-06T09:30:06.877Z,1.43
2023-05-06T09:32:37.463Z,2.20
2023-05-06T09:35:08.901Z,2.63
2023-05-06T09:37:39.551Z,1.90
2023-05-06T09:40:09.447Z,1.87
2023-05-06T09:42:37.814Z,2.33
2023-05-06T09:45:07.044Z,2.20
2023-05-06T09:47:35.946Z,1.90
2023-05-06T09:50:04.796Z,1.40
2023-05-06T09:52:33.009Z,1.90
2023-05-06T09:55:03.157Z,1.73
2023-05-06T09:57:32.136Z,3.10
2023-05-06T10:00:00.988Z,1.30
2023-05-06T10:02:29.644Z,1.80
2023-05-06T10:04:58.628Z,1.30
2023-05-06T10:07:28.817Z,1.97
2023-05-06T10:09:58.590Z,1.97
2023-05-06T10:12:28.438Z,1.70
2023-05-06T10:14:56.747Z,2.47
2023-05-06T10:17:26.237Z,1.40
2023-05-06T10:19:57.124Z,1.50
2023-05-06T10:22:31.708Z,1.60
2023-05-06T10:25:00.947Z,1.40
2023-05-06T10:27:32.321Z,1.60
2023-05-06T10:30:01.239Z,1.27
2023-05-06T10:32:34.082Z,1.90
2023-05-06T10:35:06.775Z,2.27
2023-05-06T10:37:36.042Z,1.50
2023-05-06T10:40:05.407Z,1.23
2023-05-06T10:42:36.577Z,1.50
2023-05-06T10:45:05.271Z,1.30
2023-05-06T10:47:48.413Z,1.80
2023-05-06T10:50:23.641Z,1.33
2023-05-06T10:52:53.041Z,1.70
2023-05-06T10:55:28.369Z,1.20
2023-05-06T10:57:58.499Z,1.70
2023-05-06T11:00:27.060Z,1.80
2023-05-06T11:02:59.245Z,1.53
2023-05-06T11:05:27.489Z,1.00
2023-05-06T11:08:09.597Z,1.50
2023-05-06T11:10:37.857Z,1.30
2023-05-06T11:13:24.300Z,1.50
2023-05-06T11:15:52.648Z,0.90
2023-05-06T11:18:39.755Z,1.60
2023-05-06T11:21:26.919Z,1.20
2023-05-06T11:24:14.661Z,1.93
2023-05-06T11:26:43.396Z,1.70
2023-05-06T11:29:12.929Z,1.30
2023-05-06T11:31:42.224Z,1.60
2023-05-06T11:34:11.451Z,1.90
2023-05-06T11:36:47.095Z,1.70
2023-05-06T11:39:15.638Z,1.80
2023-05-06T11:41:43.990Z,1.10
2023-05-06T11:44:14.773Z,1.83
2023-05-06T11:46:45.588Z,2.00
2023-05-06T11:49:15.393Z,1.70
2023-05-06T11:51:43.922Z,2.13
2023-05-06T11:54:14.941Z,1.80
2023-05-06T11:56:50.636Z,1.83
2023-05-06T11:59:20.795Z,1.93
2023-05-06T12:01:49.065Z,1.73
2023-05-06T12:04:17.540Z,1.67
2023-05-06T12:06:45.753Z,2.10
2023-05-06T12:09:14.411Z,1.90
2023-05-06T12:11:44.379Z,1.70
2023-05-06T12:14:13.411Z,1.77
2023-05-06T12:16:43.198Z,1.00
2023-05-06T12:19:11.529Z,1.43
2023-05-06T12:21:40.519Z,1.30
2023-05-06T12:24:08.860Z,1.50
2023-05-06T12:26:46.671Z,1.60
2023-05-06T12:29:17.148Z,1.27
2023-05-06T12:31:48.090Z,1.33
2023-05-06T12:34:17.951Z,1.57
2023-05-06T12:36:47.197Z,2.03
2023-05-06T12:39:17.464Z,1.83
2023-05-06T12:41:46.414Z,1.43
2023-05-06T12:44:34.023Z,1.70
2023-05-06T12:47:04.595Z,2.00
2023-05-06T12:49:48.507Z,1.70
2023-05-06T12:52:17.304Z,1.70
2023-05-06T12:54:45.921Z,1.70
2023-05-06T12:57:14.367Z,1.30
2023-05-06T12:59:42.892Z,1.30
2023-05-06T13:02:12.470Z,1.57
2023-05-06T13:04:40.751Z,2.03
2023-05-06T13:07:09.098Z,1.47
2023-05-06T13:09:37.478Z,1.27
2023-05-06T13:12:05.935Z,1.00
2023-05-06T13:14:34.354Z,1.20
2023-05-06T13:17:04.765Z,1.10
2023-05-06T13:19:34.650Z,1.43
2023-05-06T13:22:03.193Z,1.30
2023-05-06T13:24:32.093Z,1.23
2023-05-06T13:27:01.109Z,1.37
2023-05-06T13:29:30.431Z,1.30
2023-05-06T13:31:58.686Z,1.40
2023-05-06T13:34:27.171Z,1.23
2023-05-06T13:36:56.894Z,1.90
2023-05-06T13:39:25.152Z,1.60
2023-05-06T13:41:54.314Z,1.93
2023-05-06T13:44:22.704Z,1.50
2023-05-06T13:46:51.207Z,1.33
2023-05-06T13:49:21.110Z,1.50
2023-05-06T13:51:49.811Z,2.00
2023-05-06T13:54:19.306Z,1.33
2023-05-06T13:56:47.546Z,1.30
2023-05-06T13:59:15.751Z,2.07
2023-05-06T14:01:44.532Z,2.20
2023-05-06T14:04:12.797Z,1.33
2023-05-06T14:06:40.987Z,1.77
2023-05-06T14:09:09.309Z,2.03
2023-05-06T14:11:38.920Z,1.67
2023-05-06T14:14:07.329Z,2.80
2023-05-06T14:16:35.612Z,1.50
2023-05-06T14:19:04.705Z,2.17
2023-05-06T14:21:33.378Z,2.00
2023-05-06T14:24:01.785Z,1.90
2023-05-06T14:26:29.986Z,2.23
2023-05-06T14:28:59.574Z,2.73
2023-05-06T14:31:29.527Z,1.23
2023-05-06T14:33:57.836Z,1.63
2023-05-06T14:36:26.071Z,1.40
2023-05-06T14:38:54.313Z,1.40
2023-05-06T14:41:22.541Z,1.93
2023-05-06T14:43:50.782Z,1.40
2023-05-06T14:46:20.444Z,2.30
2023-05-06T14:48:48.666Z,1.83
2023-05-06T14:51:16.903Z,1.47
2023-05-06T14:53:45.240Z,1.73
2023-05-06T14:56:13.499Z,2.43
2023-05-06T14:58:41.735Z,1.97
2023-05-06T15:01:10.046Z,1.40
2023-05-06T15:03:39.647Z,1.30
2023-05-06T15:06:08.159Z,1.00
2023-05-06T15:08:39.282Z,1.17
2023-05-06T15:11:07.890Z,1.40
2023-05-06T15:13:36.208Z,1.30
2023-05-06T15:16:04.709Z,1.80
2023-05-06T15:18:32.918Z,1.43
2023-05-06T15:21:02.462Z,1.67
2023-05-06T15:23:30.697Z,1.30
2023-05-06T15:25:59.132Z,1.47
2023-05-06T15:28:27.355Z,1.27
2023-05-06T15:30:55.599Z,1.40
2023-05-06T15:33:23.819Z,1.77
2023-05-06T15:35:52.076Z,1.50
2023-05-06T15:38:21.654Z,1.30
2023-05-06T15:40:51.865Z,1.60
2023-05-06T15:43:24.312Z,1.40
2023-05-06T15:45:53.114Z,1.47
2023-05-06T15:48:21.525Z,1.37
2023-05-06T15:50:49.798Z,1.70
2023-05-06T15:53:18.967Z,1.10
2023-05-06T15:55:56.596Z,1.47
2023-05-06T15:58:30.324Z,1.30
2023-05-06T16:00:58.558Z,1.20
2023-05-06T16:03:27.229Z,1.20
2023-05-06T16:05:55.907Z,1.20
2023-05-06T16:08:24.090Z,1.80
2023-05-06T16:10:53.718Z,1.33
2023-05-06T16:13:22.031Z,1.40
2023-05-06T16:15:50.406Z,1.77
2023-05-06T16:18:18.709Z,1.57
2023-05-06T16:20:46.994Z,1.60
2023-05-06T16:23:16.175Z,1.33
2023-05-06T16:25:44.465Z,2.00
2023-05-06T16:28:14.040Z,1.30
2023-05-06T16:30:44.597Z,1.50
2023-05-06T16:33:13.269Z,1.67
2023-05-06T16:35:41.579Z,1.30
2023-05-06T16:38:10.018Z,1.60
2023-05-06T16:40:50.153Z,1.80
2023-05-06T16:43:19.852Z,1.97
2023-05-06T16:45:48.319Z,1.67
2023-05-06T16:48:17.239Z,1.50
2023-05-06T16:50:45.496Z,1.53
2023-05-06T16:53:14.697Z,1.80
2023-05-06T16:55:47.660Z,2.10
2023-05-06T16:58:15.962Z,1.40
2023-05-06T17:00:45.685Z,2.03
2023-05-06T17:03:14.159Z,2.80
2023-05-06T17:05:42.416Z,2.77
2023-05-06T17:08:10.915Z,1.50
2023-05-06T17:10:39.164Z,1.80
2023-05-06T17:13:07.461Z,1.90
2023-05-06T17:15:35.737Z,1.90
2023-05-06T17:18:05.576Z,2.13
2023-05-06T17:20:47.556Z,2.20
2023-05-06T17:23:22.390Z,1.80
2023-05-06T17:25:50.960Z,2.30
2023-05-06T17:28:19.393Z,4.13
2023-05-06T17:30:47.719Z,2.53
2023-05-06T17:33:17.341Z,2.50
2023-05-06T17:35:45.929Z,1.50
2023-05-06T17:38:16.688Z,2.17
2023-05-06T17:40:45.404Z,2.47
2023-05-06T17:43:13.624Z,2.50
2023-05-06T17:45:42.454Z,4.07
2023-05-06T17:48:10.683Z,3.40
2023-05-06T17:50:40.276Z,3.70
2023-05-06T17:53:08.489Z,2.97
2023-05-06T17:55:36.737Z,2.20
2023-05-06T17:58:04.933Z,2.63
2023-05-06T18:00:33.210Z,2.90
2023-05-06T18:03:01.590Z,1.80
2023-05-06T18:05:29.996Z,1.97
2023-05-06T18:07:59.591Z,2.37
2023-05-06T18:10:27.823Z,2.50
2023-05-06T18:12:57.550Z,2.90
2023-05-06T18:15:27.667Z,2.63
2023-05-06T18:17:55.968Z,2.40
2023-05-06T18:20:24.340Z,2.53
2023-05-06T18:22:52.702Z,2.13
2023-05-06T18:25:22.469Z,2.27
2023-05-06T18:27:52.491Z,2.00
2023-05-06T18:30:20.725Z,2.37
2023-05-06T18:32:51.000Z,2.03
2023-05-06T18:35:20.159Z,2.25
2023-05-06T18:37:48.462Z,2.23
2023-05-06T18:40:16.760Z,2.70
2023-05-06T18:42:46.369Z,2.60
2023-05-06T18:45:14.566Z,2.60
2023-05-06T18:47:42.746Z,2.60
2023-05-06T18:50:11.510Z,2.97
2023-05-06T18:52:39.751Z,3.23
2023-05-06T18:55:08.958Z,3.77
2023-05-06T18:57:37.907Z,2.70
2023-05-06T19:00:08.345Z,2.53
2023-05-06T19:02:37.824Z,2.67
2023-05-06T19:05:06.391Z,3.60
2023-05-06T19:07:34.600Z,2.77
2023-05-06T19:10:02.824Z,3.17
2023-05-06T19:12:31.677Z,3.47
2023-05-06T19:15:00.045Z,3.53
2023-05-06T19:17:29.660Z,3.93
2023-05-06T19:19:58.059Z,3.97
2023-05-06T19:22:26.774Z,4.30
2023-05-06T19:24:54.963Z,4.20
2023-05-06T19:27:23.972Z,3.97
2023-05-06T19:29:52.175Z,3.53
2023-05-06T19:32:20.922Z,4.03
2023-05-06T19:34:50.526Z,3.60
2023-05-06T19:37:18.766Z,2.50
2023-05-06T19:39:47.608Z,2.90
2023-05-06T19:42:15.767Z,2.97
2023-05-06T19:44:44.008Z,2.83
2023-05-06T19:47:13.204Z,2.73
2023-05-06T19:49:41.456Z,2.60
2023-05-06T19:52:11.013Z,2.83
2023-05-06T19:54:39.285Z,2.80
2023-05-06T19:57:07.550Z,3.57
2023-05-06T19:59:35.739Z,2.97
2023-05-06T20:02:04.066Z,3.40
2023-05-06T20:04:33.438Z,3.40
2023-05-06T20:07:01.639Z,4.93
2023-05-06T20:09:31.163Z,4.10
2023-05-06T20:11:59.562Z,3.90
2023-05-06T20:14:27.806Z,5.70
2023-05-06T20:16:57.639Z,6.50
2023-05-06T20:19:29.324Z,5.30
2023-05-06T20:21:57.660Z,4.63
2023-05-06T20:24:26.031Z,4.40
2023-05-06T20:26:55.908Z,4.20
2023-05-06T20:29:24.180Z,5.00
2023-05-06T20:31:52.395Z,3.90
2023-05-06T20:34:20.715Z,4.30
2023-05-06T20:36:49.874Z,4.00
2023-05-06T20:39:18.094Z,3.40
2023-05-06T20:41:46.426Z,3.30
2023-05-06T20:44:16.036Z,3.17
2023-05-06T20:46:44.356Z,3.20
2023-05-06T20:49:12.583Z,3.20
2023-05-06T20:51:40.844Z,2.90
2023-05-06T20:54:09.045Z,2.73
2023-05-06T20:56:37.301Z,3.50
2023-05-06T20:59:05.893Z,3.17
2023-05-06T21:01:35.896Z,3.10
2023-05-06T21:04:04.784Z,2.70
2023-05-06T21:06:33.043Z,2.80
2023-05-06T21:09:01.219Z,2.97
2023-05-06T21:11:29.441Z,2.60
2023-05-06T21:13:57.622Z,2.90
2023-05-06T21:16:25.850Z,3.40
2023-05-06T21:18:55.353Z,3.07
2023-05-06T21:21:24.506Z,3.37
2023-05-06T21:23:52.845Z,3.40
2023-05-06T21:26:21.460Z,3.20
2023-05-06T21:28:52.200Z,3.33
2023-05-06T21:31:20.850Z,3.03
2023-05-06T21:33:49.348Z,2.90
2023-05-06T21:36:18.864Z,3.40
2023-05-06T21:38:49.168Z,3.53
2023-05-06T21:41:17.337Z,3.27
2023-05-06T21:43:45.599Z,3.37
2023-05-06T21:46:13.836Z,3.23
2023-05-06T21:48:42.058Z,3.47
2023-05-06T21:51:10.277Z,3.60
2023-05-06T21:53:39.794Z,3.27
2023-05-06T21:56:08.127Z,3.90
2023-05-06T21:58:36.283Z,3.80
2023-05-06T22:01:04.526Z,3.40
2023-05-06T22:03:32.905Z,4.07
2023-05-06T22:06:01.285Z,3.20
2023-05-06T22:08:29.809Z,3.10
2023-05-06T22:10:59.335Z,3.67
2023-05-06T22:13:27.878Z,3.83
2023-05-06T22:15:56.250Z,3.63
2023-05-06T22:18:24.538Z,4.90
2023-05-06T22:20:52.764Z,4.27
2023-05-06T22:23:23.025Z,4.93
2023-05-06T22:25:51.845Z,4.00
2023-05-06T22:28:21.714Z,4.60
2023-05-06T22:30:50.022Z,5.20
2023-05-06T22:33:18.215Z,5.50
2023-05-06T22:35:46.440Z,5.37
2023-05-06T22:38:14.681Z,5.23
2023-05-06T22:40:42.863Z,5.70
2023-05-06T22:43:11.031Z,5.20
2023-05-06T22:45:40.662Z,4.53
2023-05-06T22:48:09.018Z,4.93
2023-05-06T22:50:38.030Z,4.20
2023-05-06T22:53:14.523Z,4.27
2023-05-06T22:55:45.340Z,4.90
2023-05-06T22:58:13.612Z,4.00
2023-05-06T23:00:47.676Z,4.70
2023-05-06T23:03:17.913Z,3.80
2023-05-06T23:05:46.208Z,3.63
2023-05-06T23:08:14.438Z,4.47
2023-05-06T23:10:42.976Z,3.83
2023-05-06T23:13:12.030Z,4.20
2023-05-06T23:15:40.333Z,4.43
2023-05-06T23:18:10.266Z,4.73
2023-05-06T23:20:38.519Z,5.23
2023-05-06T23:23:07.297Z,3.93
2023-05-06T23:25:35.586Z,4.60
2023-05-06T23:28:03.781Z,4.57
2023-05-06T23:30:32.106Z,4.63
2023-05-06T23:33:00.339Z,4.87
2023-05-06T23:35:29.991Z,3.20
2023-05-06T23:37:58.195Z,4.70
2023-05-06T23:40:26.438Z,3.50
2023-05-06T23:42:54.648Z,4.73
2023-05-06T23:45:22.892Z,4.80
2023-05-06T23:47:51.142Z,4.50
2023-05-06T23:50:19.433Z,4.17
2023-05-06T23:52:48.988Z,4.80
2023-05-06T23:55:17.310Z,4.40
2023-05-06T23:57:45.481Z,4.40
